Time;durP1;ratioP1;P1;durP2;ratioP2;P2;SDS_P1;SDS_P2;PMS_P1;PMS_P2;Temp;Humidity;BMP_temperature;BMP_pressure;BME280_temperature;BME280_humidity;BME280_pressure;Samples;Min_cycle;Max_cycle;Signal;HPM_P1;HPM_P2
2021/10/04 00:01:46;;;;;;;14.63;13.43;;;;;;;;;;5127451;28;24413;-60
2021/10/04 00:04:11;;;;;;;14.70;13.50;;;;;;;;;;5127404;28;24968;-60
2021/10/04 00:06:36;;;;;;;13.50;12.40;;;;;;;;;;5126764;28;24462;-60
2021/10/04 00:09:01;;;;;;;12.48;11.48;;;;;;;;;;5127402;28;24409;-60
2021/10/04 00:11:26;;;;;;;13.37;12.27;;;;;;;;;;5126582;28;24478;-59
2021/10/04 00:13:52;;;;;;;14.57;13.37;;;;;;;;;;5127469;28;24457;-60
2021/10/04 00:16:17;;;;;;;15.00;13.70;;;;;;;;;;5126775;28;24409;-60
2021/10/04 00:18:42;;;;;;;16.17;14.67;;;;;;;;;;5127066;28;24421;-60
2021/10/04 00:21:07;;;;;;;14.90;13.70;;;;;;;;;;5127071;28;24488;-60
2021/10/04 00:23:33;;;;;;;15.23;13.90;;;;;;;;;;5126278;28;24515;-60
2021/10/04 00:25:58;;;;;;;15.30;14.00;;;;;;;;;;5126898;28;24413;-60
2021/10/04 00:28:23;;;;;;;15.57;14.07;;;;;;;;;;5120073;28;24828;-60
2021/10/04 00:30:48;;;;;;;17.33;15.80;;;;;;;;;;5126939;28;24416;-60
2021/10/04 00:33:13;;;;;;;19.73;17.83;;;;;;;;;;5126800;28;24421;-60
2021/10/04 00:35:38;;;;;;;16.77;15.37;;;;;;;;;;5125980;28;24437;-60
2021/10/04 00:38:04;;;;;;;17.97;16.30;;;;;;;;;;5127286;28;24913;-59
2021/10/04 00:40:30;;;;;;;17.80;16.30;;;;;;;;;;5126075;28;24764;-60
2021/10/04 00:42:56;;;;;;;15.05;13.85;;;;;;;;;;5125673;28;24986;-60
2021/10/04 00:45:22;;;;;;;16.42;15.07;;;;;;;;;;5125528;28;24429;-60
2021/10/04 00:47:47;;;;;;;16.35;14.85;;;;;;;;;;5116418;28;24510;-60
2021/10/04 00:50:13;;;;;;;15.67;14.37;;;;;;;;;;5122927;27;24425;-60
2021/10/04 00:52:39;;;;;;;15.15;13.88;;;;;;;;;;5124283;28;24424;-60
2021/10/04 00:55:05;;;;;;;15.80;14.50;;;;;;;;;;5117349;28;24413;-60
2021/10/04 00:57:31;;;;;;;15.70;14.40;;;;;;;;;;5125653;28;24505;-59
2021/10/04 00:59:56;;;;;;;17.05;15.65;;;;;;;;;;5125021;28;24509;-59
2021/10/04 01:02:21;;;;;;;15.93;14.53;;;;;;;;;;5128715;27;24773;-60
2021/10/04 01:04:47;;;;;;;16.73;15.33;;;;;;;;;;5130572;27;24568;-60
2021/10/04 01:07:12;;;;;;;15.60;14.30;;;;;;;;;;5129217;27;24825;-60
2021/10/04 01:09:37;;;;;;;15.03;13.73;;;;;;;;;;5128361;27;24477;-60
2021/10/04 01:12:02;;;;;;;14.10;13.00;;;;;;;;;;5128599;27;24405;-60
2021/10/04 01:14:28;;;;;;;17.42;15.93;;;;;;;;;;5129833;27;24449;-60
2021/10/04 01:16:53;;;;;;;15.77;14.47;;;;;;;;;;5129991;27;24786;-61
2021/10/04 01:19:18;;;;;;;15.60;14.30;;;;;;;;;;5129282;27;24431;-60
2021/10/04 01:21:43;;;;;;;15.97;14.57;;;;;;;;;;5128855;27;24796;-60
2021/10/04 01:24:09;;;;;;;16.63;15.33;;;;;;;;;;5129905;27;24444;-60
2021/10/04 01:26:35;;;;;;;15.60;14.40;;;;;;;;;;5129339;27;24434;-59
2021/10/04 01:29:00;;;;;;;17.43;15.93;;;;;;;;;;5126307;27;24410;-59
2021/10/04 01:31:25;;;;;;;16.80;15.40;;;;;;;;;;5129543;27;24986;-60
2021/10/04 01:33:54;;;;;;;17.00;15.50;;;;;;;;;;5129020;27;25013;-60
2021/10/04 01:36:22;;;;;;;16.10;14.70;;;;;;;;;;5129601;27;24456;-60
2021/10/04 01:38:47;;;;;;;14.98;13.75;;;;;;;;;;5129707;27;24878;-60
2021/10/04 01:41:13;;;;;;;15.13;13.90;;;;;;;;;;5129116;27;24971;-60
2021/10/04 01:43:38;;;;;;;17.70;16.10;;;;;;;;;;5126441;27;24561;-60
2021/10/04 01:46:03;;;;;;;17.90;16.43;;;;;;;;;;5108001;27;25243;-60
2021/10/04 01:48:28;;;;;;;14.60;13.40;;;;;;;;;;5129328;27;24413;-60
2021/10/04 01:50:53;;;;;;;15.80;14.50;;;;;;;;;;5128626;27;24428;-60
2021/10/04 01:53:19;;;;;;;16.90;15.50;;;;;;;;;;5127819;27;25087;-59
2021/10/04 01:55:44;;;;;;;15.97;14.67;;;;;;;;;;5129704;27;24413;-59
2021/10/04 01:58:09;;;;;;;17.63;16.13;;;;;;;;;;5125886;27;24440;-60
2021/10/04 02:00:35;;;;;;;16.63;15.23;;;;;;;;;;5128839;27;24465;-60
2021/10/04 02:03:00;;;;;;;16.80;15.40;;;;;;;;;;5128303;27;24761;-59
2021/10/04 02:05:26;;;;;;;15.23;14.00;;;;;;;;;;5128660;27;24967;-60
2021/10/04 02:07:52;;;;;;;15.98;14.68;;;;;;;;;;5126881;27;24466;-60
2021/10/04 02:10:19;;;;;;;18.57;16.90;;;;;;;;;;5128086;27;24409;-60
2021/10/04 02:12:44;;;;;;;19.00;17.30;;;;;;;;;;5128212;27;24781;-60
2021/10/04 02:15:09;;;;;;;18.02;16.33;;;;;;;;;;5128856;27;24964;-60
2021/10/04 02:17:35;;;;;;;16.50;15.10;;;;;;;;;;5128364;27;24784;-60
2021/10/04 02:20:00;;;;;;;17.93;16.43;;;;;;;;;;5127064;27;24448;-60
2021/10/04 02:22:25;;;;;;;19.02;17.42;;;;;;;;;;5127848;27;24437;-60
2021/10/04 02:24:51;;;;;;;16.77;15.30;;;;;;;;;;5127882;27;25011;-60
2021/10/04 02:27:16;;;;;;;16.00;14.70;;;;;;;;;;5127772;27;24416;-60
2021/10/04 02:29:41;;;;;;;17.33;15.80;;;;;;;;;;5128386;27;24836;-60
2021/10/04 02:32:07;;;;;;;18.75;17.15;;;;;;;;;;5128388;27;24508;-60
2021/10/04 02:34:32;;;;;;;17.88;16.38;;;;;;;;;;5127424;27;24847;-60
2021/10/04 02:36:57;;;;;;;18.17;16.60;;;;;;;;;;5128068;27;24401;-60
2021/10/04 02:39:22;;;;;;;17.70;16.10;;;;;;;;;;5126710;27;24433;-60
2021/10/04 02:41:48;;;;;;;16.03;14.73;;;;;;;;;;5128239;27;24545;-60
2021/10/04 02:44:13;;;;;;;17.13;15.63;;;;;;;;;;5127841;27;24458;-60
2021/10/04 02:46:38;;;;;;;16.60;15.20;;;;;;;;;;5128519;27;24595;-62
2021/10/04 02:49:03;;;;;;;17.50;16.00;;;;;;;;;;5125893;27;24420;-61
2021/10/04 02:51:28;;;;;;;17.33;15.93;;;;;;;;;;5120884;27;24998;-60
2021/10/04 02:53:53;;;;;;;17.90;16.40;;;;;;;;;;5115760;27;24543;-61
2021/10/04 02:56:19;;;;;;;17.88;16.38;;;;;;;;;;5126398;27;24995;-60
2021/10/04 02:58:44;;;;;;;19.00;17.30;;;;;;;;;;5127217;27;24440;-60
2021/10/04 03:01:09;;;;;;;18.10;16.50;;;;;;;;;;5127319;27;24466;-60
2021/10/04 03:03:34;;;;;;;19.93;18.03;;;;;;;;;;5127915;27;24464;-60
2021/10/04 03:05:59;;;;;;;19.10;17.50;;;;;;;;;;5127019;27;24963;-59
2021/10/04 03:08:24;;;;;;;17.40;15.80;;;;;;;;;;5127282;27;24417;-60
2021/10/04 03:10:50;;;;;;;17.80;16.20;;;;;;;;;;5127540;27;24423;-60
2021/10/04 03:13:15;;;;;;;18.63;16.92;;;;;;;;;;5127060;27;24513;-60
2021/10/04 03:15:40;;;;;;;18.70;17.10;;;;;;;;;;5115266;27;24680;-60
2021/10/04 03:18:06;;;;;;;16.80;15.40;;;;;;;;;;5117455;27;24648;-60
2021/10/04 03:20:31;;;;;;;20.03;18.23;;;;;;;;;;5125272;27;24560;-60
2021/10/04 03:22:57;;;;;;;17.42;15.98;;;;;;;;;;5128250;27;24426;-59
2021/10/04 03:25:23;;;;;;;18.20;16.60;;;;;;;;;;5127203;27;24412;-60
2021/10/04 03:27:48;;;;;;;17.60;16.10;;;;;;;;;;5127756;27;24409;-60
2021/10/04 03:30:13;;;;;;;17.60;16.10;;;;;;;;;;5126970;27;24444;-60
2021/10/04 03:32:38;;;;;;;17.17;15.67;;;;;;;;;;5125699;27;24440;-60
2021/10/04 03:35:04;;;;;;;16.98;15.52;;;;;;;;;;5120185;27;24568;-61
2021/10/04 03:37:30;;;;;;;17.95;16.35;;;;;;;;;;5126423;27;24532;-60
2021/10/04 03:39:55;;;;;;;17.60;16.00;;;;;;;;;;5126712;27;24508;-60
2021/10/04 03:42:20;;;;;;;19.33;17.63;;;;;;;;;;5127329;27;24774;-60
2021/10/04 03:44:45;;;;;;;17.70;16.20;;;;;;;;;;5127726;27;24971;-60
2021/10/04 03:47:10;;;;;;;17.57;16.17;;;;;;;;;;5126285;27;25030;-60
2021/10/04 03:49:35;;;;;;;17.37;15.77;;;;;;;;;;5118421;27;24413;-60
2021/10/04 03:52:01;;;;;;;18.38;16.67;;;;;;;;;;5124177;27;24774;-60
2021/10/04 03:54:27;;;;;;;18.53;16.93;;;;;;;;;;5125814;27;24466;-59
2021/10/04 03:56:52;;;;;;;17.40;15.90;;;;;;;;;;5121992;28;24488;-59
2021/10/04 03:59:17;;;;;;;19.27;17.65;;;;;;;;;;5121143;27;24432;-59
2021/10/04 04:01:42;;;;;;;17.77;16.27;;;;;;;;;;5127460;28;24618;-59
2021/10/04 04:04:07;;;;;;;17.48;15.98;;;;;;;;;;5124834;28;24757;-59
2021/10/04 04:06:32;;;;;;;20.07;18.27;;;;;;;;;;5112537;28;24518;-59
2021/10/04 04:08:58;;;;;;;18.33;16.73;;;;;;;;;;5106912;28;24431;-59
2021/10/04 04:11:24;;;;;;;18.30;16.80;;;;;;;;;;5119573;28;24427;-60
2021/10/04 04:13:49;;;;;;;17.37;15.67;;;;;;;;;;5126717;28;25043;-60
2021/10/04 04:16:14;;;;;;;19.13;17.48;;;;;;;;;;5126575;28;24409;-60
2021/10/04 04:18:39;;;;;;;19.35;17.65;;;;;;;;;;5119909;28;25007;-59
2021/10/04 04:21:04;;;;;;;17.90;16.30;;;;;;;;;;5119482;28;24420;-60
2021/10/04 04:23:30;;;;;;;19.00;17.40;;;;;;;;;;5112393;28;24960;-59
2021/10/04 04:25:55;;;;;;;17.67;16.17;;;;;;;;;;5119529;27;24552;-59
2021/10/04 04:28:21;;;;;;;18.10;16.50;;;;;;;;;;5113614;27;24525;-59
2021/10/04 04:30:46;;;;;;;17.38;15.88;;;;;;;;;;5118477;27;24572;-60
2021/10/04 04:33:11;;;;;;;19.20;17.50;;;;;;;;;;5120707;28;24417;-60
2021/10/04 04:35:36;;;;;;;17.83;16.33;;;;;;;;;;5112192;27;24536;-60
2021/10/04 04:38:02;;;;;;;17.17;15.57;;;;;;;;;;5118654;27;24960;-59
2021/10/04 04:40:27;;;;;;;18.13;16.63;;;;;;;;;;5107142;27;24421;-59
2021/10/04 04:42:52;;;;;;;18.40;16.80;;;;;;;;;;5125267;27;24424;-59
2021/10/04 04:45:20;;;;;;;17.30;15.80;;;;;;;;;;5126198;27;24430;-59
2021/10/04 04:47:45;;;;;;;18.23;16.73;;;;;;;;;;5126256;27;24673;-59
2021/10/04 04:50:11;;;;;;;16.75;15.35;;;;;;;;;;5127544;27;24528;-59
2021/10/04 04:52:36;;;;;;;18.90;17.20;;;;;;;;;;5126932;27;24426;-59
2021/10/04 04:55:02;;;;;;;19.30;17.50;;;;;;;;;;5122629;27;24778;-60
2021/10/04 04:57:27;;;;;;;17.80;16.20;;;;;;;;;;5113672;27;24424;-59
2021/10/04 04:59:52;;;;;;;19.02;17.23;;;;;;;;;;5122177;27;24504;-61
2021/10/04 05:02:20;;;;;;;18.17;16.55;;;;;;;;;;5120307;27;25036;-59
2021/10/04 05:04:45;;;;;;;17.17;15.67;;;;;;;;;;5127577;27;25143;-60
2021/10/04 05:07:11;;;;;;;17.50;16.00;;;;;;;;;;5122139;27;24494;-59
2021/10/04 05:09:36;;;;;;;17.30;15.80;;;;;;;;;;5122162;27;25197;-59
2021/10/04 05:12:01;;;;;;;17.20;15.70;;;;;;;;;;5114961;27;24966;-59
2021/10/04 05:14:27;;;;;;;18.50;16.93;;;;;;;;;;5123572;27;24527;-59
2021/10/04 05:16:52;;;;;;;17.85;16.35;;;;;;;;;;5119716;27;24474;-59
2021/10/04 05:19:17;;;;;;;19.98;18.27;;;;;;;;;;5112365;27;24777;-59
2021/10/04 05:21:42;;;;;;;17.45;16.02;;;;;;;;;;5108206;27;24420;-59
2021/10/04 05:24:07;;;;;;;18.60;17.00;;;;;;;;;;5111814;27;24435;-59
2021/10/04 05:26:32;;;;;;;16.40;15.00;;;;;;;;;;5116844;27;24409;-61
2021/10/04 05:28:58;;;;;;;18.20;16.60;;;;;;;;;;5119762;27;24504;-59
2021/10/04 05:31:23;;;;;;;17.43;15.93;;;;;;;;;;5125391;27;24744;-60
2021/10/04 05:33:48;;;;;;;17.50;16.10;;;;;;;;;;5124078;27;24486;-60
2021/10/04 05:36:13;;;;;;;18.93;17.30;;;;;;;;;;5123843;27;24512;-60
2021/10/04 05:38:38;;;;;;;18.30;16.80;;;;;;;;;;5120151;27;24520;-60
2021/10/04 05:41:04;;;;;;;18.50;17.00;;;;;;;;;;5122054;27;24447;-59
2021/10/04 05:43:29;;;;;;;16.60;15.20;;;;;;;;;;5123347;27;24409;-59
2021/10/04 05:45:55;;;;;;;20.73;18.70;;;;;;;;;;5125238;27;24805;-59
2021/10/04 05:48:20;;;;;;;17.48;15.98;;;;;;;;;;5122162;27;24495;-60
2021/10/04 05:50:45;;;;;;;17.48;15.98;;;;;;;;;;5119939;27;24457;-60
2021/10/04 05:53:10;;;;;;;15.47;14.17;;;;;;;;;;5121240;27;24425;-60
2021/10/04 05:55:35;;;;;;;18.20;16.60;;;;;;;;;;5117976;27;24481;-60
2021/10/04 05:58:01;;;;;;;15.50;14.10;;;;;;;;;;5123080;27;24524;-60
2021/10/04 06:00:27;;;;;;;16.83;15.43;;;;;;;;;;5119322;27;24432;-60
2021/10/04 06:02:52;;;;;;;17.95;16.42;;;;;;;;;;5114967;27;24493;-60
2021/10/04 06:05:17;;;;;;;18.08;16.48;;;;;;;;;;5124270;27;24420;-60
2021/10/04 06:07:42;;;;;;;19.27;17.57;;;;;;;;;;5128223;27;24432;-61
2021/10/04 06:10:10;;;;;;;18.40;16.70;;;;;;;;;;5128525;27;24471;-61
2021/10/04 06:12:36;;;;;;;17.27;15.77;;;;;;;;;;5128732;27;24546;-61
2021/10/04 06:15:02;;;;;;;16.90;15.50;;;;;;;;;;5128181;27;24494;-60
2021/10/04 06:17:28;;;;;;;16.52;15.02;;;;;;;;;;5128342;27;24413;-60
2021/10/04 06:19:53;;;;;;;19.40;17.70;;;;;;;;;;5129054;27;24396;-59
2021/10/04 06:22:19;;;;;;;17.42;15.85;;;;;;;;;;5117077;27;24953;-59
2021/10/04 06:24:44;;;;;;;16.30;15.00;;;;;;;;;;5128031;27;24994;-60
2021/10/04 06:27:09;;;;;;;16.00;14.60;;;;;;;;;;5128529;27;24401;-60
2021/10/04 06:29:34;;;;;;;16.50;15.10;;;;;;;;;;5128416;27;24752;-60
2021/10/04 06:31:59;;;;;;;16.95;15.45;;;;;;;;;;5128029;27;24413;-61
2021/10/04 06:34:25;;;;;;;16.92;15.52;;;;;;;;;;5123600;27;24432;-61
2021/10/04 06:36:50;;;;;;;18.63;17.13;;;;;;;;;;5128914;27;24948;-61
2021/10/04 06:39:15;;;;;;;15.60;14.23;;;;;;;;;;5128003;27;24437;-61
2021/10/04 06:41:41;;;;;;;14.30;13.10;;;;;;;;;;5127633;27;24404;-61
2021/10/04 06:44:07;;;;;;;15.43;14.13;;;;;;;;;;5128177;27;24451;-60
2021/10/04 06:46:33;;;;;;;15.50;14.20;;;;;;;;;;5128686;27;24420;-61
2021/10/04 06:48:59;;;;;;;14.20;13.00;;;;;;;;;;5116358;27;24818;-61
2021/10/04 06:51:24;;;;;;;17.38;15.77;;;;;;;;;;5127604;27;24405;-60
2021/10/04 06:53:49;;;;;;;15.90;14.50;;;;;;;;;;5127548;27;24479;-60
2021/10/04 06:56:14;;;;;;;15.33;14.07;;;;;;;;;;5118454;27;24496;-60
2021/10/04 06:58:39;;;;;;;16.65;15.35;;;;;;;;;;5118572;27;24528;-60
2021/10/04 07:01:05;;;;;;;16.60;15.20;;;;;;;;;;5120892;27;24412;-60
2021/10/04 07:03:30;;;;;;;18.83;17.30;;;;;;;;;;5123351;27;24428;-60
2021/10/04 07:05:58;;;;;;;16.52;15.18;;;;;;;;;;5122128;27;24917;-61
2021/10/04 07:08:24;;;;;;;16.92;15.52;;;;;;;;;;5122142;27;24529;-60
2021/10/04 07:10:49;;;;;;;17.10;15.60;;;;;;;;;;5118395;27;24496;-61
2021/10/04 07:13:14;;;;;;;18.97;17.27;;;;;;;;;;5123130;27;24562;-59
2021/10/04 07:15:39;;;;;;;20.03;18.23;;;;;;;;;;5121778;27;24566;-59
2021/10/04 07:18:04;;;;;;;19.90;18.20;;;;;;;;;;5124129;27;24416;-59
2021/10/04 07:20:29;;;;;;;16.17;14.77;;;;;;;;;;5123376;27;24408;-59
2021/10/04 07:22:58;;;;;;;17.00;15.50;;;;;;;;;;5118176;27;24621;-60
2021/10/04 07:25:23;;;;;;;17.95;16.35;;;;;;;;;;5117560;27;24411;-60
2021/10/04 07:27:48;;;;;;;15.97;14.67;;;;;;;;;;5118204;27;24444;-60
2021/10/04 07:30:15;;;;;;;18.23;16.70;;;;;;;;;;5123044;27;24956;-59
2021/10/04 07:32:41;;;;;;;13.10;12.00;;;;;;;;;;5122987;27;24461;-60
2021/10/04 07:35:06;;;;;;;15.77;14.48;;;;;;;;;;5121889;27;24454;-59
2021/10/04 07:37:31;;;;;;;13.27;12.17;;;;;;;;;;5119238;27;24409;-60
2021/10/04 07:39:56;;;;;;;13.67;12.57;;;;;;;;;;5118192;27;24401;-60
2021/10/04 07:42:22;;;;;;;15.80;14.40;;;;;;;;;;5119245;27;24373;-60
2021/10/04 07:44:47;;;;;;;13.10;12.00;;;;;;;;;;5121702;27;24419;-58
2021/10/04 07:47:12;;;;;;;13.65;12.45;;;;;;;;;;5122998;27;24785;-59
2021/10/04 07:49:37;;;;;;;11.50;10.60;;;;;;;;;;5121352;27;24463;-61
2021/10/04 07:52:02;;;;;;;12.60;11.60;;;;;;;;;;5119287;27;24421;-61
2021/10/04 07:54:28;;;;;;;13.13;12.02;;;;;;;;;;5117948;27;24397;-59
2021/10/04 07:56:53;;;;;;;11.53;10.67;;;;;;;;;;5119905;27;24401;-59
2021/10/04 07:59:18;;;;;;;12.00;11.00;;;;;;;;;;5122917;28;24425;-59
2021/10/04 08:01:43;;;;;;;14.03;12.93;;;;;;;;;;5121428;28;25020;-58
2021/10/04 08:04:10;;;;;;;12.03;11.07;;;;;;;;;;5115870;28;24393;-59
2021/10/04 08:06:35;;;;;;;11.93;11.02;;;;;;;;;;5119583;28;24381;-59
2021/10/04 08:09:00;;;;;;;15.68;14.27;;;;;;;;;;5120940;28;24420;-59
2021/10/04 08:11:25;;;;;;;12.57;11.57;;;;;;;;;;5124045;27;24408;-59
2021/10/04 08:13:51;;;;;;;11.70;10.80;;;;;;;;;;5125728;27;24719;-60
2021/10/04 08:16:16;;;;;;;10.80;9.90;;;;;;;;;;5121889;27;24929;-59
2021/10/04 08:18:42;;;;;;;11.05;10.15;;;;;;;;;;5121497;27;24686;-59
2021/10/04 08:21:07;;;;;;;11.57;10.57;;;;;;;;;;5123556;27;24481;-59
2021/10/04 08:23:32;;;;;;;13.63;12.43;;;;;;;;;;5127033;27;24388;-59
2021/10/04 08:25:57;;;;;;;10.73;9.93;;;;;;;;;;5125644;27;24430;-59
2021/10/04 08:28:22;;;;;;;10.33;9.50;;;;;;;;;;5121750;27;24405;-59
2021/10/04 08:30:47;;;;;;;9.57;8.77;;;;;;;;;;5121549;27;24469;-59
2021/10/04 08:33:13;;;;;;;9.47;8.77;;;;;;;;;;5127142;27;24753;-59
2021/10/04 08:35:38;;;;;;;9.63;8.73;;;;;;;;;;5127034;27;24421;-59
2021/10/04 08:38:03;;;;;;;10.40;9.50;;;;;;;;;;5125118;27;24772;-59
2021/10/04 08:40:28;;;;;;;10.57;9.77;;;;;;;;;;5123071;27;24758;-59
2021/10/04 08:42:54;;;;;;;12.90;11.70;;;;;;;;;;5121558;27;25015;-59
2021/10/04 08:45:19;;;;;;;9.95;9.15;;;;;;;;;;5125280;27;24879;-59
2021/10/04 08:47:47;;;;;;;8.83;8.13;;;;;;;;;;5124712;27;24417;-59
2021/10/04 08:50:16;;;;;;;8.90;8.20;;;;;;;;;;5124958;27;24381;-59
2021/10/04 08:52:41;;;;;;;11.27;10.38;;;;;;;;;;5102002;27;24421;-60
2021/10/04 08:55:07;;;;;;;10.37;9.47;;;;;;;;;;5123350;27;24388;-59
2021/10/04 08:57:33;;;;;;;10.57;9.68;;;;;;;;;;5122656;27;24465;-59
2021/10/04 08:59:58;;;;;;;9.37;8.57;;;;;;;;;;5126637;27;24779;-59
2021/10/04 09:02:25;;;;;;;10.25;9.35;;;;;;;;;;5125742;27;24416;-61
2021/10/04 09:05:08;;;;;;;8.70;8.00;;;;;;;;;;5124798;27;24488;-61
2021/10/04 09:07:40;;;;;;;9.13;8.43;;;;;;;;;;5124578;27;24393;-61
2021/10/04 09:10:06;;;;;;;8.75;7.97;;;;;;;;;;5122733;27;25097;-62
2021/10/04 09:12:38;;;;;;;10.05;9.25;;;;;;;;;;5120179;27;24523;-59
2021/10/04 09:15:17;;;;;;;8.80;8.10;;;;;;;;;;5126283;27;24513;-59
2021/10/04 09:17:42;;;;;;;10.30;9.50;;;;;;;;;;5124264;27;24951;-59
2021/10/04 09:20:07;;;;;;;9.93;8.93;;;;;;;;;;5125751;27;24431;-59
2021/10/04 09:22:33;;;;;;;11.03;10.13;;;;;;;;;;5123774;27;24753;-59
2021/10/04 09:25:01;;;;;;;12.37;11.27;;;;;;;;;;5120587;27;24615;-59
2021/10/04 09:27:28;;;;;;;12.70;11.70;;;;;;;;;;5120258;27;24400;-60
2021/10/04 09:29:53;;;;;;;10.60;9.70;;;;;;;;;;5123933;27;24405;-60
2021/10/04 09:32:26;;;;;;;12.00;10.90;;;;;;;;;;5125599;27;24926;-59
2021/10/04 09:35:09;;;;;;;12.30;11.30;;;;;;;;;;5124157;27;24618;-60
2021/10/04 09:37:34;;;;;;;11.95;10.95;;;;;;;;;;5123880;27;24410;-59
2021/10/04 09:39:59;;;;;;;11.67;10.67;;;;;;;;;;5119495;27;24479;-60
2021/10/04 09:42:25;;;;;;;10.60;9.70;;;;;;;;;;5124039;27;24377;-59
2021/10/04 09:44:54;;;;;;;9.40;8.60;;;;;;;;;;5124276;27;24593;-60
2021/10/04 09:47:42;;;;;;;8.25;7.55;;;;;;;;;;5125839;27;24484;-59
2021/10/04 09:50:11;;;;;;;8.23;7.63;;;;;;;;;;5125333;27;24396;-60
2021/10/04 09:52:36;;;;;;;6.50;5.93;;;;;;;;;;5113406;27;24428;-61
2021/10/04 09:55:11;;;;;;;5.13;4.73;;;;;;;;;;5121948;27;24401;-60
2021/10/04 09:57:36;;;;;;;3.60;3.30;;;;;;;;;;5122207;27;24559;-61
2021/10/04 10:00:02;;;;;;;3.03;2.40;;;;;;;;;;5125867;27;24614;-60
2021/10/04 10:02:29;;;;;;;2.40;1.80;;;;;;;;;;5125266;27;24960;-60
2021/10/04 10:04:54;;;;;;;2.90;1.90;;;;;;;;;;5119846;27;24935;-61
2021/10/04 10:07:19;;;;;;;2.63;1.90;;;;;;;;;;5119567;27;24393;-60
2021/10/04 10:09:44;;;;;;;2.10;1.90;;;;;;;;;;5119718;27;24815;-60
2021/10/04 10:12:09;;;;;;;4.40;2.40;;;;;;;;;;5124957;27;24411;-60
2021/10/04 10:14:42;;;;;;;4.53;1.98;;;;;;;;;;5125203;27;24508;-60
2021/10/04 10:17:20;;;;;;;2.00;1.90;;;;;;;;;;5121825;27;24408;-60
2021/10/04 10:19:47;;;;;;;3.05;1.90;;;;;;;;;;5119261;27;24529;-60
2021/10/04 10:22:16;;;;;;;1.85;1.75;;;;;;;;;;5124824;27;24416;-60
2021/10/04 10:24:42;;;;;;;1.50;1.40;;;;;;;;;;5124754;27;25147;-60
2021/10/04 10:27:07;;;;;;;1.35;1.25;;;;;;;;;;5121624;27;24454;-60
2021/10/04 10:29:35;;;;;;;2.90;1.20;;;;;;;;;;5119614;27;24740;-60
2021/10/04 10:32:00;;;;;;;1.17;1.08;;;;;;;;;;5121504;27;24438;-60
2021/10/04 10:34:42;;;;;;;1.35;1.20;;;;;;;;;;5123243;27;24437;-60
2021/10/04 10:37:21;;;;;;;1.73;1.50;;;;;;;;;;5125152;27;24480;-60
2021/10/04 10:39:53;;;;;;;4.10;1.33;;;;;;;;;;5122811;27;24523;-60
2021/10/04 10:42:27;;;;;;;1.50;1.40;;;;;;;;;;5119327;27;24381;-60
2021/10/04 10:44:55;;;;;;;3.03;1.15;;;;;;;;;;5122560;27;24423;-60
2021/10/04 10:47:35;;;;;;;1.40;1.10;;;;;;;;;;5124501;27;24397;-60
2021/10/04 10:50:05;;;;;;;1.50;1.17;;;;;;;;;;5124393;27;24535;-60
2021/10/04 10:52:30;;;;;;;2.10;1.07;;;;;;;;;;5124670;27;24401;-60
2021/10/04 10:54:56;;;;;;;0.90;0.80;;;;;;;;;;5120318;27;24823;-60
2021/10/04 10:57:40;;;;;;;1.00;1.00;;;;;;;;;;5119085;27;24784;-58
2021/10/04 11:00:13;;;;;;;1.25;0.90;;;;;;;;;;5120470;27;24460;-59
2021/10/04 11:02:59;;;;;;;1.23;0.90;;;;;;;;;;5122467;27;24916;-61
2021/10/04 11:05:39;;;;;;;1.50;1.40;;;;;;;;;;5123956;27;24781;-61
2021/10/04 11:08:05;;;;;;;1.23;1.13;;;;;;;;;;5122517;27;24817;-61
2021/10/04 11:10:30;;;;;;;1.50;1.40;;;;;;;;;;5120736;27;24878;-61
2021/10/04 11:13:07;;;;;;;1.30;1.20;;;;;;;;;;5118813;27;24551;-62
2021/10/04 11:15:33;;;;;;;2.03;1.60;;;;;;;;;;5120045;27;24834;-62
2021/10/04 11:17:58;;;;;;;1.60;1.50;;;;;;;;;;5124055;27;25304;-61
2021/10/04 11:20:23;;;;;;;2.40;1.70;;;;;;;;;;5124157;27;24401;-61
2021/10/04 11:22:49;;;;;;;1.60;1.50;;;;;;;;;;5123112;27;24580;-61
2021/10/04 11:25:15;;;;;;;1.80;1.70;;;;;;;;;;5119820;27;24405;-61
2021/10/04 11:27:47;;;;;;;1.65;1.55;;;;;;;;;;5119170;27;24740;-61
2021/10/04 11:30:12;;;;;;;1.90;1.60;;;;;;;;;;5123424;27;24416;-61
2021/10/04 11:32:37;;;;;;;1.33;1.30;;;;;;;;;;5122116;27;24397;-61
2021/10/04 11:35:15;;;;;;;1.50;1.40;;;;;;;;;;5123500;27;24851;-61
2021/10/04 11:37:40;;;;;;;2.55;1.40;;;;;;;;;;5120155;27;24561;-59
2021/10/04 11:40:06;;;;;;;2.00;1.20;;;;;;;;;;5117995;27;24417;-59
2021/10/04 11:42:32;;;;;;;1.50;1.40;;;;;;;;;;5118163;27;24746;-60
2021/10/04 11:45:00;;;;;;;1.92;1.63;;;;;;;;;;5123613;27;24393;-59
2021/10/04 11:47:25;;;;;;;1.42;1.20;;;;;;;;;;5123868;27;24374;-60
2021/10/04 11:49:52;;;;;;;1.90;1.53;;;;;;;;;;5121615;27;24781;-60
2021/10/04 11:52:19;;;;;;;1.30;1.13;;;;;;;;;;5118183;27;24392;-59
2021/10/04 11:54:47;;;;;;;1.23;0.90;;;;;;;;;;5121855;27;24397;-60
2021/10/04 11:57:21;;;;;;;1.30;1.20;;;;;;;;;;5119991;27;24420;-60
2021/10/04 11:59:53;;;;;;;3.07;1.37;;;;;;;;;;5120939;27;24428;-61
2021/10/04 12:02:26;;;;;;;1.38;1.27;;;;;;;;;;5123610;27;24393;-60
2021/10/04 12:04:51;;;;;;;1.90;1.20;;;;;;;;;;5117822;28;24404;-60
2021/10/04 12:07:16;;;;;;;1.27;1.20;;;;;;;;;;5118122;28;24940;-60
2021/10/04 12:09:42;;;;;;;1.40;1.30;;;;;;;;;;5119452;28;24400;-60
2021/10/04 12:12:07;;;;;;;2.13;1.13;;;;;;;;;;5123270;28;24891;-61
2021/10/04 12:14:33;;;;;;;1.20;1.10;;;;;;;;;;5122967;28;24599;-60
2021/10/04 12:16:59;;;;;;;1.80;1.70;;;;;;;;;;5119987;28;24405;-60
2021/10/04 12:19:25;;;;;;;1.60;1.45;;;;;;;;;;5117848;28;24441;-60
2021/10/04 12:21:50;;;;;;;1.60;1.50;;;;;;;;;;5121324;28;24522;-60
2021/10/04 12:24:20;;;;;;;1.30;1.20;;;;;;;;;;5123295;28;24426;-60
2021/10/04 12:26:54;;;;;;;1.37;1.27;;;;;;;;;;5121485;28;24480;-60
2021/10/04 12:29:31;;;;;;;2.60;1.20;;;;;;;;;;5123317;28;24553;-59
2021/10/04 12:31:57;;;;;;;1.38;1.00;;;;;;;;;;5121248;28;24440;-60
2021/10/04 12:34:24;;;;;;;1.80;1.30;;;;;;;;;;5099032;28;24433;-59
2021/10/04 12:36:49;;;;;;;1.60;1.10;;;;;;;;;;5117681;28;24401;-60
2021/10/04 12:39:15;;;;;;;2.33;1.10;;;;;;;;;;5119475;28;25212;-60
2021/10/04 12:41:41;;;;;;;1.58;1.48;;;;;;;;;;5121289;28;24492;-60
2021/10/04 12:44:14;;;;;;;1.60;1.35;;;;;;;;;;5102761;28;24390;-61
2021/10/04 12:46:39;;;;;;;4.07;2.85;;;;;;;;;;5106577;28;24397;-60
2021/10/04 12:49:21;;;;;;;7.60;5.57;;;;;;;;;;5117356;28;24963;-60
2021/10/04 12:51:46;;;;;;;16.80;11.97;;;;;;;;;;5117254;28;24454;-61
2021/10/04 12:54:11;;;;;;;3.30;2.20;;;;;;;;;;5120667;28;24401;-60
2021/10/04 12:56:38;;;;;;;1.90;1.50;;;;;;;;;;5122989;27;24732;-60
2021/10/04 12:59:09;;;;;;;1.80;1.10;;;;;;;;;;5124366;27;24505;-59
2021/10/04 13:01:35;;;;;;;1.00;0.90;;;;;;;;;;5123231;27;24534;-58
2021/10/04 13:04:03;;;;;;;3.33;2.85;;;;;;;;;;5120773;27;24454;-59
2021/10/04 13:06:30;;;;;;;3.90;2.60;;;;;;;;;;5120915;27;24783;-59
2021/10/04 13:08:55;;;;;;;2.72;2.15;;;;;;;;;;5126628;27;24389;-58
2021/10/04 13:11:21;;;;;;;2.03;1.27;;;;;;;;;;5123117;27;24767;-60
2021/10/04 13:13:47;;;;;;;4.10;3.80;;;;;;;;;;5120663;27;24498;-60
2021/10/04 13:16:12;;;;;;;12.10;11.17;;;;;;;;;;5124641;27;24488;-59
2021/10/04 13:18:38;;;;;;;5.90;5.40;;;;;;;;;;5124195;27;25017;-60
2021/10/04 13:21:04;;;;;;;2.83;2.63;;;;;;;;;;5126398;27;24477;-59
2021/10/04 13:23:29;;;;;;;2.50;1.10;;;;;;;;;;5126616;27;24405;-64
2021/10/04 13:25:55;;;;;;;1.13;0.90;;;;;;;;;;5120840;27;24437;-59
2021/10/04 13:28:20;;;;;;;1.70;1.10;;;;;;;;;;5120603;27;24521;-59
2021/10/04 13:30:45;;;;;;;1.77;1.20;;;;;;;;;;5122592;27;24401;-59
2021/10/04 13:33:10;;;;;;;1.45;0.90;;;;;;;;;;5126182;27;24387;-60
2021/10/04 13:35:35;;;;;;;2.03;0.90;;;;;;;;;;5125414;27;24741;-61
2021/10/04 13:38:00;;;;;;;1.97;1.00;;;;;;;;;;5124133;27;24409;-60
2021/10/04 13:40:26;;;;;;;2.53;1.30;;;;;;;;;;5121193;27;24784;-62
2021/10/04 13:42:51;;;;;;;2.10;1.30;;;;;;;;;;5120559;27;25271;-60
2021/10/04 13:45:16;;;;;;;1.30;0.95;;;;;;;;;;5121036;27;24470;-59
2021/10/04 13:47:41;;;;;;;1.70;1.00;;;;;;;;;;5123363;27;24416;-59
2021/10/04 13:50:07;;;;;;;1.30;1.10;;;;;;;;;;5120806;27;24497;-59
2021/10/04 13:52:36;;;;;;;0.90;0.80;;;;;;;;;;5123475;27;24818;-61
2021/10/04 13:55:02;;;;;;;1.50;1.20;;;;;;;;;;5122041;27;24409;-61
2021/10/04 13:57:27;;;;;;;1.38;1.13;;;;;;;;;;5120163;27;24385;-61
2021/10/04 13:59:52;;;;;;;1.40;0.90;;;;;;;;;;5125216;27;24697;-60
2021/10/04 14:02:17;;;;;;;2.58;1.20;;;;;;;;;;5125552;27;24472;-61
2021/10/04 14:04:43;;;;;;;1.30;0.90;;;;;;;;;;5123578;27;24420;-61
2021/10/04 14:07:08;;;;;;;1.10;0.93;;;;;;;;;;5123875;27;24729;-59
2021/10/04 14:09:33;;;;;;;1.40;0.80;;;;;;;;;;5120020;27;25037;-61
2021/10/04 14:11:59;;;;;;;1.20;1.10;;;;;;;;;;5120039;27;24404;-60
2021/10/04 14:14:24;;;;;;;1.30;0.90;;;;;;;;;;5125316;27;24400;-59
2021/10/04 14:16:49;;;;;;;1.08;0.98;;;;;;;;;;5123368;27;24978;-59
2021/10/04 14:19:14;;;;;;;1.10;1.00;;;;;;;;;;5124819;27;24516;-59
2021/10/04 14:21:40;;;;;;;1.00;0.90;;;;;;;;;;5123343;27;24413;-60